Terminal Aerodrome Forecast
Issued by NWS

Home | Current Version | Previous Version | Graphics & Text | Print | Product List | Glossary On
Versions: 1 2 3 4 5 6 7 8 9 10 11 12 13 14
000
FTUS43 KOAX 171733
TAFCDR
TAF
KCDR 171733Z 1718/1818 19018G25KT P6SM SCT150
     FM172100 32022G32KT P6SM VCSH BKN050 OVC100
      TEMPO 1722/1724 5SM -SHRA BKN025
     FM180000 33022G32KT 5SM -SHRA BKN015 OVC025
     FM180300 32020G30KT P6SM -RASN BKN025 OVC050
     FM180800 30018G25KT P6SM SCT100=

USA.gov is the U.S. government's official web portal to all federal, state and local government web resources and services.